Freeman, SD

5:59 AM CDT on August 20, 2014 (GMT -0500)
Mitchell Municipal | Change Station
CLOSE
Current Station
Airport
Location: Mitchell,
Elevation: 1302 ft
Nearby Weather Stations

Elev 1302 ft 43.77 °N, 98.04 °W | Updated 6 minutes ago

Scattered Clouds
Scattered Clouds
68 °F
Feels Like 68 °F
N
12
Wind Variable Wind from North

Today
High -- | Low -- °F
--% Chance of Precip.
Yesterday
High -- | Low -- °F
Precip. -- in
6:40 AM 8:24 PM
Waning Crescent, 22% visible
Pressure 29.75 in
Visibility 10.0 miles
Clouds Few 1500 ft
Scattered Clouds 2800 ft
Scattered Clouds 4700 ft
Dew Point 66 °F
Humidity 93%
Rainfall 0.30 in
Snow Depth Not available.
UV 0 out of 12
Pollen 9.80 out of 12
Air Quality Not available.
Flu Activity Not available.
METAR KMHE 201053Z AUTO 36010KT 10SM FEW015 SCT028 SCT047 20/19 A2977 RMK AO2 LTG DSNT N-E RAB22E51 TSB15E46 SLP072 P0030 T02000189

More Conditions Fewer Conditions

Pressure 29.75 in
Visibility 10.0 miles
Clouds Few 1500 ft
Scattered Clouds 2800 ft
Scattered Clouds 4700 ft
Dew Point 66 °F
Humidity 93%
Rainfall 0.30 in
Snow Depth Not available.
UV 0 out of 12
Pollen 9.80 out of 12
Air Quality Not available.
Flu Activity Not available.
METAR KMHE 201053Z AUTO 36010KT 10SM FEW015 SCT028 SCT047 20/19 A2977 RMK AO2 LTG DSNT N-E RAB22E51 TSB15E46 SLP072 P0030 T02000189

More Conditions Fewer Conditions

10-Day Weather Forecast

Almanac

Astronomy

Aug. 20, 2014 Rise Set
Actual Time 6:40 AM CDT 8:24 PM CDT
Civil Twilight 6:10 AM CDT 8:55 PM CDT
Nautical Twilight 5:33 AM CDT 9:31 PM CDT
Astronomical Twilight 4:53 AM CDT 10:11 PM CDT
Moon 2:18 AM CDT 5:13 PM CDT
Length of Visible Light 14h 45m
Length of Day
13h 44m
Tomorrow will be 2m 42s shorter.
Waning Crescent, 22% of the Moon is Illuminated
Today
Waning Crescent
Aug 25
New
Sep 2
First Quarter
Sep 8
Full
Sep 15
Last Quarter

Today's Extremes

State Highs State Lows

Community

WunderPhotos

Upload Photos

1,745,605 photos uploaded!

Nearby

Snow Depth

Station Depth Elevation
North Rapid Creek 0 in 6130 ft
Blind Park 0 in 6890 ft

Earthquake Activity

City Distance Mag. Time & Date
No recent earthquake activity has been reported nearby.
Minimum magnitude displayed is 2.5.

Coastal Water Temperatures

Place Temperature
No Stations Reporting

Nearby Weather Stations